• Join FlightAware (Why Join?)
  • Login
  • US Flag 
08:05PM EDT


 

Airport Tracker/Info


-or-


 

Live Flight TrackerFlight Track Log ✈ N39PH ✈ 03-May-2013 ✈ KAPA - KDRO

Flight Track Log - Related Links

Times and Time Zones

All times are in EDT time to prevent confusion due to time zone crossing. See the N39PH flight status page for this flight to view local times or setup timezone preferences in your user account.

Time Position Orientation Groundspeed Altitude Reporting Facility
EDT Latitude Longitude Course Direction KTS MPH feet Rate Location/Type
07:09PM 39.5833 -104.9000 207° Southwest 199 229 8,400  Level Denver TRACON
07:10PM 39.5333 -104.9333 207° Southwest 182 209 10,700 1,800 Climbing Denver TRACON
07:11PM 39.5264 -104.9361 197° South 185 213 11,000 180 Climbing Denver Center
07:12PM 39.4642 -104.9556 194° South 218 251 11,000  Level Denver Center
07:13PM 39.4019 -104.9747 193° South 229 264 11,000 1,020 Level Denver Center
07:14PM 39.3481 -104.9928 195° South 184 212 13,200 2,040 Climbing Denver Center
07:15PM 39.2972 -105.0050 191° South 172 198 15,300 1,740 Climbing Denver Center
07:16PM 39.2472 -105.0253 197° South 191 220 16,900 1,080 Climbing Denver Center
07:17PM 39.1806 -105.0489 195° South 236 272 17,600 1,200 Climbing Denver Center
07:18PM 39.1217 -105.0661 193° South 211 243 19,400 1,620 Climbing Denver Center
07:19PM 39.0717 -105.0942 204° Southwest 197 227 21,000 1,320 Climbing Denver Center
07:20PM 39.0214 -105.1247 205° Southwest 198 228 22,200 480 Climbing Denver Center
07:21PM 38.9739 -105.1836 224° Southwest 237 273 22,000 -120 Descending Denver Center
07:22PM 38.9292 -105.2547 231° Southwest 253 291 22,000  Level Denver Center
07:23PM 38.8739 -105.3344 228° Southwest 260 299 22,000  Level Denver Center
07:24PM 38.8283 -105.3994 228° Southwest 257 296 22,000  Level Denver Center
07:25PM 38.7836 -105.4656 229° Southwest 255 293 22,000  Level Denver Center
07:26PM 38.7319 -105.5400 228° Southwest 252 290 22,000  Level Denver Center
07:27PM 38.6861 -105.6056 228° Southwest 255 293 22,000  Level Denver Center
07:28PM 38.6336 -105.6808 228° Southwest 255 293 22,000  Level Denver Center
07:29PM 38.5894 -105.7461 229° Southwest 254 292 22,000  Level Denver Center
07:30PM 38.5378 -105.8206 228° Southwest 252 290 22,000  Level Denver Center
07:31PM 38.4950 -105.8844 229° Southwest 248 285 22,000  Level Denver Center
07:32PM 38.4419 -105.9569 227° Southwest 249 287 22,000  Level Denver Center
07:33PM 38.3986 -106.0222 230° Southwest 252 290 22,000  Level Denver Center
07:34PM 38.3458 -106.0944 227° Southwest 249 287 22,000  Level Denver Center
07:35PM 38.3017 -106.1589 229° Southwest 250 288 22,000  Level Denver Center
07:36PM 38.2542 -106.2261 228° Southwest 260 299 22,000  Level Denver Center
07:38PM 38.2072 -106.2942 229° Southwest 258 297 22,000  Level Denver Center
07:39PM 38.1506 -106.3733 228° Southwest 252 290 22,000  Level Denver Center
07:40PM 38.1019 -106.4411 228° Southwest 256 295 22,000  Level Denver Center
07:41PM 38.0536 -106.5061 227° Southwest 257 296 22,000  Level Denver Center
07:42PM 38.0000 -106.5831 229° Southwest 259 298 22,000  Level Denver Center
07:43PM 37.9531 -106.6483 228° Southwest 261 300 22,000  Level Denver Center
07:44PM 37.8981 -106.7222 227° Southwest 258 297 22,000  Level Denver Center
07:45PM 37.8522 -106.7878 228° Southwest 259 298 22,000  Level Denver Center
07:46PM 37.7958 -106.8631 227° Southwest 262 302 22,000  Level Denver Center
07:47PM 37.7478 -106.9292 227° Southwest 265 305 22,000  Level Denver Center
07:48PM 37.7011 -106.9961 229° Southwest 265 305 22,000 -360 Level Denver Center
07:49PM 37.6478 -107.0725 229° Southwest 261 300 21,300 -1,020 Descending Denver Center
07:50PM 37.5975 -107.1389 226° Southwest 267 307 20,000 -1,440 Descending Denver Center
07:51PM 37.5392 -107.2200 228° Southwest 276 318 18,400 -1,320 Descending Denver Center
07:52PM 37.4892 -107.2864 227° Southwest 275 316 17,300 -1,320 Descending Denver Center
07:53PM 37.4322 -107.3653 228° Southwest 272 313 15,700 -1,440 Descending Denver Center
07:54PM 37.3831 -107.4322 227° Southwest 273 314 14,400 -1,440 Descending Denver Center
07:55PM 37.3294 -107.5092 229° Southwest 266 306 12,800 -1,620 Descending Denver Center
07:56PM 37.2858 -107.5694 228° Southwest 254 292 11,100 -1,500 Descending Denver Center
07:57PM 37.2422 -107.6383 232° Southwest 235 270 9,800 -1,140 Descending Denver Center
07:58PM 37.2122 -107.6944 236° Southwest 215 247 8,800 -780 Descending Denver Center
07:59PM 37.1858 -107.7408 234° Southwest 209 241 8,200 -360 Descending Denver Center
08:00PM 37.1497 -107.7914 228° Southwest 161 185 8,100 -600 Descending Denver Center
08:01PM 37.1303 -107.7706 139° Southeast 160 184 7,000 -1,080 Descending Denver Center